Latest Weather Observations for Mount Gambier

IDS60801

Issued at 7:02 pm CDT Saturday 10 December 2016 (issued every 30 minutes, with the page automatically refreshed every 10 minutes)

About weather observations | Map of weather stations | Latest weather observations for SA | Other Formats
Station Details ID: 026021 Name: MOUNT GAMBIER AERO Lat: -37.75 Lon: 140.77 Height: 63.0 m
Data from the previous 72 hours. | See also: Recent months at Mount Gambier
Date/Time
CDT
Temp
°C
App
Temp
°C
Dew
Point
°C
Rel
Hum
%
Delta-T
°C
Wind Press
QNH
hPa
Press
MSL
hPa
Rain since
9am
mm
Dir  Spd
km/h
Gust
km/h
Spd
kts
Gust
kts
10/06:30pm 14.4 10.6 11.0 80 1.8 SSW 22 28 12 15 1023.5 1023.4 0.0
10/06:00pm 14.8 11.4 10.6 76 2.2 SW 19 26 10 14 1023.5 1023.4 0.0
10/05:30pm 14.8 12.1 10.2 74 2.4 SW 15 20 8 11 1023.6 1023.5 0.0
10/05:00pm 14.5 11.4 10.3 76 2.2 WSW 17 24 9 13 1023.7 1023.6 0.0
10/04:30pm 14.7 12.0 10.3 75 2.3 SW 15 20 8 11 1023.7 1023.6 0.0
10/04:00pm 15.1 11.5 10.5 74 2.4 SW 20 28 11 15 1023.7 1023.6 0.0
10/03:30pm 15.0 11.6 10.6 75 2.3 WSW 19 26 10 14 1023.8 1023.7 0.0
10/03:00pm 15.7 13.5 10.7 72 2.6 SW 13 19 7 10 1024.0 1024.0 0.0
10/02:30pm 15.2 11.6 10.6 74 2.4 WSW 20 28 11 15 1024.4 1024.4 0.0
10/02:00pm 15.0 11.9 10.4 74 2.4 SW 17 20 9 11 1024.5 1024.5 0.0
10/01:30pm 15.6 13.1 11.0 74 2.4 WSW 15 20 8 11 1024.6 1024.6 0.0
10/01:00pm 15.3 12.6 10.5 73 2.5 WSW 15 20 8 11 1024.6 1024.6 0.0
10/12:30pm 15.2 13.3 10.6 74 2.4 W 11 17 6 9 1024.8 1024.8 0.0
10/12:00pm 13.6 10.8 10.0 79 1.9 WSW 15 22 8 12 1025.0 1025.0 0.0
10/11:30am 13.8 10.6 10.0 78 2.0 W 17 26 9 14 1024.9 1024.9 0.0
10/11:00am 14.5 12.3 10.9 79 1.9 W 13 17 7 9 1025.0 1025.0 0.0
10/10:30am 14.0 11.2 10.0 77 2.1 W 15 19 8 10 1025.1 1025.1 0.0
10/10:00am 13.6 10.9 10.2 80 1.8 SW 15 20 8 11 1025.0 1025.0 0.0
10/09:30am 13.6 11.1 9.8 78 1.9 WNW 13 17 7 9 1025.0 1025.0 0.0
10/09:00am 13.3 11.2 9.9 80 1.7 W 11 17 6 9 1024.9 1024.9 0.2
10/08:30am 13.6 11.8 10.8 83 1.5 SW 11 15 6 8 1024.7 1024.7 0.2
10/08:00am 13.0 11.0 10.0 82 1.5 NNW 11 17 6 9 1024.4 1024.4 0.2
10/07:30am 11.9 10.4 10.6 92 0.7 NNW 9 11 5 6 1024.1 1024.1 0.2
10/07:00am 9.8 8.5 9.8 100 0.0 NW 7 9 4 5 1024.1 1024.1 0.2
10/06:30am 9.3 8.0 9.3 100 0.0 NNW 6 7 3 4 1023.6 1023.5 0.2
10/06:00am 9.3 9.2 9.3 100 0.0 CALM 0 0 0 0 1023.4 1023.3 0.2
10/05:30am 9.6 9.5 9.6 100 0.0 CALM 0 0 0 0 1022.9 1022.8 0.2
10/05:00am 9.6 7.8 9.6 100 0.0 SW 9 11 5 6 1023.0 1022.9 0.2
10/04:30am 9.2 7.9 9.2 100 0.0 NNE 6 7 3 4 1022.8 1022.7 0.2
10/04:00am 9.3 7.4 9.0 98 0.1 NNE 9 9 5 5 1022.6 1022.5 0.2
10/03:30am 10.3 9.0 9.8 97 0.3 ESE 7 9 4 5 1022.7 1022.6 0.2
10/03:00am 10.4 9.2 9.6 95 0.4 NNW 6 11 3 6 1022.7 1022.6 0.2
10/02:30am 10.4 8.6 9.5 94 0.4 NW 9 9 5 5 1022.9 1022.8 0.2
10/02:00am 10.7 8.9 9.6 93 0.6 WSW 9 15 5 8 1023.1 1023.0 0.2
10/01:30am 11.0 9.2 9.6 91 0.7 W 9 11 5 6 1023.2 1023.1 0.2
10/01:00am 10.9 9.1 9.3 90 0.8 W 9 9 5 5 1023.3 1023.2 0.2
10/12:30am 10.7 9.4 9.1 90 0.8 SW 6 7 3 4 1023.5 1023.4 0.2
10/12:00am 10.9 9.9 8.8 87 1.0 WSW 4 7 2 4 1023.5 1023.4 0.2
 
Date/Time
CDT
Temp
°C
App
Temp
°C
Dew
Point
°C
Rel
Hum
%
Delta-T
°C
Wind Press
QNH
hPa
Press
MSL
hPa
Rain since
9am
mm
Dir  Spd
km/h
Gust
km/h
Spd
kts
Gust
kts
09/11:30pm 11.2 9.7 9.1 87 1.0 S 7 9 4 5 1023.7 1023.6 0.2
09/11:00pm 11.4 9.9 9.3 87 1.1 SSW 7 9 4 5 1023.7 1023.6 0.2
09/10:30pm 11.4 9.9 9.3 87 1.1 SSW 7 7 4 4 1023.7 1023.6 0.2
09/10:00pm 11.5 9.6 9.2 86 1.2 S 9 11 5 6 1023.6 1023.5 0.2
09/09:30pm 11.5 10.0 8.5 82 1.5 SSW 6 7 3 4 1023.6 1023.5 0.2
09/09:00pm 11.4 9.3 8.3 81 1.5 S 9 13 5 7 1023.3 1023.2 0.2
09/08:30pm 12.2 9.7 8.1 76 2.0 SSW 11 15 6 8 1023.2 1023.1 0.2
09/08:00pm 12.6 8.8 7.7 72 2.4 SW 17 19 9 10 1023.2 1023.1 0.2
09/07:30pm 12.8 9.5 7.9 72 2.4 SW 15 20 8 11 1022.9 1022.8 0.2
09/07:00pm 13.2 9.5 7.9 70 2.6 SW 17 20 9 11 1022.7 1022.6 0.2
09/06:30pm 13.3 8.5 7.5 68 2.8 SSW 22 30 12 16 1022.4 1022.3 0.2
09/06:00pm 13.5 9.4 8.6 72 2.5 SSW 20 28 11 15 1022.1 1022.0 0.2
09/05:30pm 14.1 9.8 7.9 66 3.1 SSW 20 28 11 15 1021.9 1021.8 0.2
09/05:00pm 14.2 9.5 7.9 66 3.1 WSW 22 30 12 16 1021.8 1021.7 0.2
09/04:30pm 14.9 10.7 7.5 61 3.7 SSW 19 30 10 16 1021.9 1021.8 0.2
09/04:00pm 14.9 10.3 8.2 64 3.4 SSW 22 30 12 16 1021.9 1021.8 0.2
09/03:30pm 15.4 10.0 8.2 62 3.6 SW 26 37 14 20 1021.8 1021.7 0.2
09/03:00pm 15.0 10.7 7.8 62 3.6 SW 20 30 11 16 1021.8 1021.7 0.2
09/02:30pm 15.1 10.1 8.1 63 3.5 SW 24 33 13 18 1021.7 1021.6 0.2
09/02:00pm 15.6 11.4 8.4 62 3.7 SSW 20 30 11 16 1021.6 1021.5 0.0
09/01:30pm 14.5 9.6 8.5 67 3.0 SSW 24 32 13 17 1021.8 1021.7 0.0
09/01:00pm 15.0 10.3 7.8 62 3.6 SW 22 32 12 17 1021.6 1021.5 0.0
09/12:30pm 15.2 9.7 7.5 60 3.8 SW 26 32 14 17 1021.6 1021.5 0.0
09/12:00pm 15.4 10.2 7.4 59 4.0 SSW 24 35 13 19 1021.3 1021.2 0.0
09/11:30am 15.1 9.9 7.2 59 3.9 SW 24 32 13 17 1021.3 1021.2 0.0
09/11:00am 14.3 8.8 7.6 64 3.3 SSW 26 33 14 18 1021.1 1021.0 0.0
09/10:30am 13.7 7.6 6.8 63 3.3 SSW 28 39 15 21 1020.8 1020.7 0.0
09/10:00am 14.0 8.3 6.6 61 3.6 SW 26 33 14 18 1020.5 1020.4 0.0
09/09:30am 13.0 6.9 6.8 66 3.0 SSW 28 35 15 19 1020.3 1020.2 0.0
09/09:00am 12.9 7.4 6.0 63 3.3 SW 24 37 13 20 1020.0 1019.9 2.2
09/08:30am 12.7 7.2 5.8 63 3.2 SSW 24 35 13 19 1019.4 1019.3 2.2
09/08:00am 12.6 8.3 7.9 73 2.3 SW 20 32 11 17 1018.9 1018.8 2.2
09/07:30am 11.6 7.3 7.1 74 2.2 SW 19 26 10 14 1018.3 1018.2 2.2
09/07:00am 11.1 6.9 7.4 78 1.8 SW 19 26 10 14 1017.9 1017.8 2.2
09/06:30am 9.7 6.1 6.8 82 1.4 SW 15 22 8 12 1017.4 1017.3 2.2
09/06:00am 9.4 6.3 7.3 87 1.0 SW 13 17 7 9 1016.8 1016.7 2.2
09/05:30am 9.8 6.5 7.9 88 0.9 SW 15 19 8 10 1016.3 1016.2 2.2
09/05:00am 9.9 5.6 7.7 86 1.1 SSW 20 32 11 17 1016.0 1015.9 2.2
09/04:30am 10.2 5.1 7.8 85 1.2 SSW 24 33 13 18 1015.4 1015.3 2.2
09/04:18am 10.2 6.0 7.4 83 1.3 SW 19 41 10 22 1015.3 1015.2 2.2
09/04:00am 9.8 6.6 6.7 81 1.5 WSW 13 15 7 8 1015.1 1015.0 2.2
09/03:30am 9.3 5.5 6.0 80 1.5 SW 15 19 8 10 1014.7 1014.6 2.2
09/03:00am 9.3 5.2 6.0 80 1.5 SW 17 26 9 14 1014.5 1014.4 2.2
09/02:30am 9.9 6.5 7.8 87 1.0 SW 15 20 8 11 1014.2 1014.1 2.2
09/02:00am 9.6 6.3 7.9 89 0.8 WSW 15 22 8 12 1014.2 1014.1 2.2
09/01:30am 9.6 5.8 7.7 88 0.9 SW 17 24 9 13 1014.0 1013.9 2.2
09/01:00am 9.4 6.4 7.8 90 0.8 SSW 13 17 7 9 1014.0 1013.9 2.2
09/12:30am 9.6 6.0 8.2 91 0.7 SW 17 26 9 14 1013.9 1013.8 2.2
09/12:00am 9.9 5.1 8.8 93 0.5 SW 24 41 13 22 1013.8 1013.7 2.2
 
Date/Time
CDT
Temp
°C
App
Temp
°C
Dew
Point
°C
Rel
Hum
%
Delta-T
°C
Wind Press
QNH
hPa
Press
MSL
hPa
Rain since
9am
mm
Dir  Spd
km/h
Gust
km/h
Spd
kts
Gust
kts
08/11:30pm 10.1 5.1 8.2 88 0.9 WSW 24 41 13 22 1013.6 1013.5 2.0
08/11:00pm 9.5 5.9 8.3 92 0.6 WSW 17 24 9 13 1013.2 1013.1 2.0
08/10:30pm 10.3 6.4 8.6 89 0.8 WSW 19 30 10 16 1013.1 1013.0 2.0
08/10:00pm 10.8 7.6 8.6 86 1.1 WSW 15 20 8 11 1012.6 1012.5 1.8
08/09:30pm 11.1 6.1 8.1 82 1.5 SSW 24 33 13 18 1012.0 1011.9 1.8
08/09:00pm 11.7 5.9 8.0 78 1.8 WSW 28 41 15 22 1011.3 1011.1 1.8
08/08:30pm 11.9 6.5 8.2 78 1.8 WSW 26 35 14 19 1010.9 1010.7 1.8
08/08:00pm 12.1 6.5 8.6 79 1.7 WSW 28 41 15 22 1010.0 1009.9 1.8
08/07:30pm 11.8 5.2 8.6 81 1.6 WSW 33 50 18 27 1009.4 1009.3 1.8
08/07:05pm 13.0 6.6 8.5 74 2.3 WSW 32 50 17 27 1008.9 1008.8 1.6
08/07:00pm 13.1 6.1 8.6 74 2.3 WSW 35 50 19 27 1008.8 1008.7 1.6
08/06:30pm 12.5 5.6 9.0 79 1.8 WSW 35 54 19 29 1008.0 1007.9 1.6
08/06:00pm 14.4 8.1 8.8 69 2.9 WSW 32 52 17 28 1007.4 1007.3 1.6
08/05:30pm 12.5 5.0 9.3 81 1.6 SW 39 59 21 32 1006.7 1006.6 1.6
08/05:00pm 13.9 6.2 10.3 79 1.9 WSW 41 59 22 32 1006.1 1006.0 1.6
08/04:30pm 14.4 8.9 12.4 88 1.1 WSW 33 52 18 28 1005.5 1005.4 1.6
08/04:01pm 12.7 5.0 10.2 85 1.3 WSW 41 59 22 32 1005.0 1004.9 1.6
08/04:00pm 13.2 5.2 10.4 83 1.5 WSW 43 59 23 32 1004.9 1004.8 1.2
08/03:30pm 15.7 7.3 9.6 67 3.2 WSW 44 63 24 34 1004.4 1004.3 1.0
08/03:02pm 15.3 7.1 10.3 72 2.6 WSW 44 65 24 35 1004.0 1003.9 1.0
08/03:00pm 15.1 7.1 10.3 73 2.5 WSW 43 59 23 32 1004.0 1003.9 1.0
08/02:31pm 15.1 7.2 10.9 76 2.2 WSW 43 61 23 33 1003.6 1003.5 1.0
08/02:30pm 15.3 7.4 11.3 77 2.2 WSW 44 61 24 33 1003.6 1003.5 1.0
08/02:00pm 14.5 7.0 12.7 89 1.0 W 44 67 24 36 1003.2 1003.1 1.0
08/01:38pm 15.4 6.7 10.0 70 2.8 W 46 67 25 36 1002.8 1002.7 1.0
08/01:30pm 16.3 7.5 11.0 71 2.9 W 48 61 26 33 1002.7 1002.6 1.0
08/01:00pm 16.6 7.5 11.3 71 2.9 W 50 74 27 40 1002.2 1002.1 1.0
08/12:30pm 14.4 5.5 11.9 85 1.4 W 50 76 27 41 1001.8 1001.7 1.0
08/12:00pm 14.3 6.9 12.3 88 1.1 WNW 43 63 23 34 1001.8 1001.7 0.8
08/11:55am 13.2 4.1 11.1 87 1.1 W 50 69 27 37 1001.8 1001.7 0.8
08/11:49am 14.2 5.8 11.2 82 1.6 WNW 46 67 25 36 1001.6 1001.5 0.8
08/11:32am 14.7 8.4 12.4 86 1.3 WNW 37 57 20 31 1001.1 1001.0 0.8
08/11:30am 14.8 8.8 13.3 91 0.8 WNW 37 52 20 28 1001.1 1001.0 0.8
08/11:00am 15.8 6.7 11.4 75 2.4 WNW 50 69 27 37 1000.9 1000.8 0.2
08/10:39am 14.9 7.5 12.6 86 1.3 WNW 43 61 23 33 1000.7 1000.6 0.2
08/10:30am 14.0 5.9 11.9 87 1.1 WNW 46 63 25 34 1000.7 1000.6 0.2
08/10:24am 13.6 5.9 12.2 91 0.8 WNW 44 63 24 34 1000.7 1000.6 0.2
08/10:20am 13.7 6.0 12.1 90 0.9 WNW 44 59 24 32 1000.7 1000.6 0.2
08/10:03am 12.6 3.1 11.2 91 0.7 W 52 70 28 38 1000.5 1000.4 0.2
08/10:01am 12.9 3.1 11.3 90 0.8 W 54 70 29 38 1000.5 1000.4 0.2
08/10:00am 13.0 3.0 10.9 87 1.1 W 54 70 29 38 1000.4 1000.3 0.2
08/09:30am 15.7 7.4 10.0 69 3.0 WNW 44 70 24 38 999.6 999.5 0.0
08/09:00am 15.1 6.8 9.9 71 2.7 WNW 44 69 24 37 999.5 999.4 5.6
08/08:30am 15.3 6.9 11.1 76 2.3 WNW 46 76 25 41 999.1 998.9 5.6
08/08:00am 14.7 8.1 11.3 80 1.8 WNW 37 61 20 33 998.5 998.3 5.6
08/07:30am 13.6 8.2 11.0 84 1.4 NW 30 50 16 27 998.2 998.0 5.6
08/07:25am 13.7 7.9 10.9 83 1.5 NW 32 50 17 27 998.3 998.1 5.6
08/07:00am 13.2 7.4 10.7 85 1.3 NW 32 48 17 26 998.2 998.0 5.6
08/06:30am 13.0 6.6 10.7 86 1.2 WNW 35 57 19 31 997.8 997.6 5.6
08/06:22am 12.8 6.0 10.7 87 1.1 WNW 37 57 20 31 997.7 997.5 5.6
08/06:00am 12.9 6.3 11.3 90 0.9 WNW 37 50 20 27 997.4 997.2 5.6
08/05:30am 13.7 8.3 12.9 95 0.4 WNW 33 52 18 28 996.7 996.5 5.6
08/05:18am 13.8 7.8 13.2 96 0.3 WNW 37 56 20 30 996.1 995.9 5.6
08/05:12am 13.8 6.7 13.3 97 0.3 WNW 43 54 23 29 995.9 995.7 5.6
08/05:00am 14.1 7.4 13.5 96 0.3 WNW 41 59 22 32 995.8 995.6 5.6
08/04:44am 15.1 8.1 14.3 95 0.5 WNW 44 67 24 36 995.1 995.0 5.4
08/04:31am 16.2 10.6 15.6 96 0.4 WNW 39 57 21 31 994.4 994.3 5.4
08/04:30am 16.3 10.8 15.7 96 0.4 WNW 39 56 21 30 994.3 994.2 5.2
08/04:02am 18.8 14.5 17.8 94 0.6 NW 37 65 20 35 994.1 994.0 4.6
08/04:00am 19.0 15.2 18.2 95 0.5 NW 35 50 19 27 994.0 993.9 4.6
08/03:58am 19.0 15.3 18.3 96 0.4 NNW 35 50 19 27 993.9 993.8 4.6
08/03:31am 18.9 16.1 18.2 96 0.4 N 30 48 16 26 993.6 993.5 4.6
08/03:30am 18.8 15.6 18.1 96 0.4 N 32 48 17 26 993.6 993.5 4.6
08/03:21am 18.5 15.9 17.9 96 0.4 N 28 46 15 25 993.6 993.5 4.6
08/03:00am 18.1 15.4 17.6 97 0.3 N 28 37 15 20 993.9 993.8 4.6
08/02:30am 18.5 16.0 17.2 92 0.8 N 26 35 14 19 994.3 994.2 3.4
08/02:00am 17.9 14.9 16.9 94 0.6 N 28 41 15 22 995.4 995.3 3.2
08/01:43am 17.5 16.5 16.5 94 0.6 N 17 28 9 15 994.7 994.6 3.0
08/01:30am 17.9 15.9 16.4 91 0.9 NNW 22 33 12 18 996.3 996.1 2.6
08/01:28am 18.2 16.2 16.4 89 1.1 NNW 22 33 12 18 996.6 996.4 2.2
08/01:00am 20.2 17.5 15.6 75 2.7 NNE 24 30 13 16 994.8 994.7 0.2
08/12:30am 19.8 15.7 15.9 78 2.3 NNE 32 41 17 22 995.8 995.6 0.2
08/12:25am 19.8 16.1 16.1 79 2.2 NNE 30 41 16 22 996.0 995.8 0.2
08/12:00am 19.8 16.7 15.7 77 2.5 NNE 26 46 14 25 998.0 997.8 0.0
 
Date/Time
CDT
Temp
°C
App
Temp
°C
Dew
Point
°C
Rel
Hum
%
Delta-T
°C
Wind Press
QNH
hPa
Press
MSL
hPa
Rain since
9am
mm
Dir  Spd
km/h
Gust
km/h
Spd
kts
Gust
kts
07/11:58pm 20.1 17.4 15.5 75 2.7 NNE 24 44 13 24 998.0 997.8 0.0
07/11:30pm 20.1 18.5 15.1 73 3.0 NNE 17 22 9 12 997.3 997.1 0.0
07/11:00pm 20.5 19.0 15.3 72 3.1 NNE 17 19 9 10 998.8 998.6 0.0
07/10:30pm 20.3 19.9 16.1 77 2.5 NE 13 17 7 9 999.7 999.6 0.0
07/10:00pm 17.2 18.6 14.5 84 1.6 CALM 0 0 0 0 1000.5 1000.4 0.0
07/09:30pm 17.1 18.4 14.2 83 1.7 CALM 0 0 0 0 1001.5 1001.4 0.0
07/09:00pm 17.1 17.0 14.0 82 1.8 S 7 7 4 4 1001.8 1001.7 0.0
07/08:30pm 17.8 18.0 14.1 79 2.1 SSE 6 7 3 4 1002.6 1002.5 0.0
07/08:00pm 19.7 19.8 15.4 76 2.5 NW 9 13 5 7 1003.3 1003.2 0.0
07/07:30pm 19.4 18.1 13.8 70 3.2 WSW 13 15 7 8 1004.0 1003.9 0.0
07/07:29pm 19.5 18.4 14.3 72 3.0 WSW 13 15 7 8 1004.1 1004.0 0.0

Other Formats:

Comma delimited format used in spreadsheet applications
http://www.bom.gov.au/fwo/IDS60801/IDS60801.94821.axf

JavaScript Object Notation format (JSON) in row-major order
http://www.bom.gov.au/fwo/IDS60801/IDS60801.94821.json